Time;durP1;ratioP1;P1;durP2;ratioP2;P2;SDS_P1;SDS_P2;PMS_P1;PMS_P2;Temp;Humidity;BMP_temperature;BMP_pressure;BME280_temperature;BME280_humidity;BME280_pressure;Samples;Min_cycle;Max_cycle;Signal;HPM_P1;HPM_P2
2023/04/21 00:01:33;;;;;;;;;;;7.30;99.90;;;;;;5095735;28;20262;-64
2023/04/21 00:03:59;;;;;;;;;;;7.20;99.90;;;;;;5095887;28;20345;-64
2023/04/21 00:06:25;;;;;;;;;;;7.30;99.90;;;;;;5095880;28;20015;-64
2023/04/21 00:08:51;;;;;;;;;;;7.40;99.90;;;;;;5095915;28;19963;-64
2023/04/21 00:11:17;;;;;;;;;;;7.50;99.90;;;;;;5096052;28;20322;-64
2023/04/21 00:13:43;;;;;;;;;;;7.50;99.90;;;;;;5095312;28;19957;-64
2023/04/21 00:16:09;;;;;;;;;;;7.50;99.90;;;;;;5095547;28;20425;-64
2023/04/21 00:18:35;;;;;;;;;;;7.50;99.90;;;;;;5095897;28;19912;-64
2023/04/21 00:21:01;;;;;;;;;;;7.40;99.90;;;;;;5095744;28;19913;-65
2023/04/21 00:23:27;;;;;;;;;;;7.40;99.90;;;;;;5095829;28;20008;-64
2023/04/21 00:25:53;;;;;;;;;;;7.50;99.90;;;;;;5094833;28;20003;-64
2023/04/21 00:28:18;;;;;;;;;;;7.40;99.90;;;;;;5095526;28;19954;-64
2023/04/21 00:30:44;;;;;;;;;;;7.40;99.90;;;;;;5095376;28;19927;-64
2023/04/21 00:33:10;;;;;;;;;;;7.30;99.90;;;;;;5095348;28;19916;-64
2023/04/21 00:35:36;;;;;;;;;;;7.30;99.90;;;;;;5095517;28;19920;-64
2023/04/21 00:38:01;;;;;;;;;;;7.40;99.90;;;;;;5095358;28;19918;-64
2023/04/21 00:40:28;;;;;;;;;;;7.40;99.90;;;;;;5077084;28;19912;-64
2023/04/21 00:42:53;;;;;;;;;;;7.40;99.90;;;;;;5095159;28;19916;-64
2023/04/21 00:45:20;;;;;;;;;;;7.30;99.90;;;;;;5095367;28;19912;-64
2023/04/21 00:47:46;;;;;;;;;;;7.20;99.90;;;;;;5095179;28;19912;-64
2023/04/21 00:50:12;;;;;;;;;;;7.20;99.90;;;;;;5077025;28;19912;-64
2023/04/21 00:52:42;;;;;;;;;;;7.20;99.90;;;;;;5077210;28;19954;-64
2023/04/21 00:55:08;;;;;;;;;;;7.20;99.90;;;;;;5094780;28;19920;-64
2023/04/21 00:57:37;;;;;;;;;;;7.10;99.90;;;;;;5095146;28;19916;-64
2023/04/21 01:00:04;;;;;;;;;;;7.10;99.90;;;;;;5095134;28;20251;-64
2023/04/21 01:02:31;;;;;;;;;;;7.10;99.90;;;;;;5076994;28;19916;-64
2023/04/21 01:04:56;;;;;;;;;;;7.10;99.90;;;;;;5094922;28;19923;-64
2023/04/21 01:07:24;;;;;;;;;;;6.90;99.90;;;;;;5094922;28;19908;-64
2023/04/21 01:09:49;;;;;;;;;;;6.80;99.90;;;;;;5094885;28;20395;-64
2023/04/21 01:12:15;;;;;;;;;;;6.70;99.90;;;;;;5076830;28;20011;-64
2023/04/21 01:14:41;;;;;;;;;;;6.70;99.90;;;;;;5076569;28;19920;-64
2023/04/21 01:17:07;;;;;;;;;;;6.70;99.90;;;;;;5094990;28;19919;-64
2023/04/21 01:19:38;;;;;;;;;;;6.70;99.90;;;;;;5094773;28;19919;-63
2023/04/21 01:22:06;;;;;;;;;;;6.60;99.90;;;;;;5094868;28;19920;-64
2023/04/21 01:24:39;;;;;;;;;;;6.60;99.90;;;;;;5076713;28;19926;-64
2023/04/21 01:27:09;;;;;;;;;;;6.50;99.90;;;;;;5094605;28;19989;-64
2023/04/21 01:29:35;;;;;;;;;;;6.50;99.90;;;;;;5094816;28;19920;-64
2023/04/21 01:32:08;;;;;;;;;;;6.40;99.90;;;;;;5094610;28;20292;-64
2023/04/21 01:34:34;;;;;;;;;;;6.50;99.90;;;;;;5094674;28;20101;-64
2023/04/21 01:37:00;;;;;;;;;;;6.50;99.90;;;;;;5097789;28;19923;-64
2023/04/21 01:39:26;;;;;;;;;;;6.30;99.90;;;;;;5080426;28;19912;-64
2023/04/21 01:41:54;;;;;;;;;;;6.40;99.90;;;;;;5098538;28;19916;-64
2023/04/21 01:44:20;;;;;;;;;;;6.40;99.90;;;;;;5098740;28;19951;-64
2023/04/21 01:46:46;;;;;;;;;;;6.50;99.90;;;;;;5080317;28;19965;-64
2023/04/21 01:49:11;;;;;;;;;;;6.50;99.90;;;;;;5098669;28;19919;-64
2023/04/21 01:51:37;;;;;;;;;;;6.40;99.90;;;;;;5098461;28;19954;-64
2023/04/21 01:54:03;;;;;;;;;;;6.50;99.90;;;;;;5080168;28;19916;-64
2023/04/21 01:56:29;;;;;;;;;;;6.50;99.90;;;;;;5079955;28;19924;-64
2023/04/21 01:58:55;;;;;;;;;;;6.60;99.90;;;;;;5098334;28;20099;-64
2023/04/21 02:01:20;;;;;;;;;;;6.50;99.90;;;;;;5080200;28;20090;-64
2023/04/21 02:03:46;;;;;;;;;;;6.50;99.90;;;;;;5098049;28;19912;-64
2023/04/21 02:06:13;;;;;;;;;;;6.50;99.90;;;;;;5098078;28;20399;-64
2023/04/21 02:08:39;;;;;;;;;;;6.50;99.90;;;;;;5079744;28;19908;-64
2023/04/21 02:11:06;;;;;;;;;;;6.50;99.90;;;;;;5098107;28;20388;-64
2023/04/21 02:13:32;;;;;;;;;;;6.50;99.90;;;;;;5098014;28;19916;-64
2023/04/21 02:15:58;;;;;;;;;;;6.40;99.90;;;;;;5097870;28;19919;-64
2023/04/21 02:18:24;;;;;;;;;;;6.30;99.90;;;;;;5079652;28;19916;-63
2023/04/21 02:20:50;;;;;;;;;;;6.20;99.90;;;;;;5079873;28;20362;-63
2023/04/21 02:23:16;;;;;;;;;;;6.10;99.90;;;;;;5097753;28;19918;-63
2023/04/21 02:25:42;;;;;;;;;;;6.10;99.90;;;;;;5079573;28;19912;-63
2023/04/21 02:28:08;;;;;;;;;;;6.10;99.90;;;;;;5079619;28;19919;-63
2023/04/21 02:30:34;;;;;;;;;;;6.00;99.90;;;;;;5097820;28;20018;-63
2023/04/21 02:33:00;;;;;;;;;;;6.00;99.90;;;;;;5097634;28;19923;-63
2023/04/21 02:35:26;;;;;;;;;;;6.00;99.90;;;;;;5097636;28;20289;-64
2023/04/21 02:37:51;;;;;;;;;;;6.00;99.90;;;;;;5097669;28;19912;-63
2023/04/21 02:40:17;;;;;;;;;;;6.00;99.90;;;;;;5079330;28;19912;-63
2023/04/21 02:42:43;;;;;;;;;;;6.00;99.90;;;;;;5079304;28;19912;-63
2023/04/21 02:45:10;;;;;;;;;;;6.00;99.90;;;;;;5097419;28;19912;-63
2023/04/21 02:47:35;;;;;;;;;;;6.10;99.90;;;;;;5078509;28;20373;-63
2023/04/21 02:50:03;;;;;;;;;;;6.10;99.90;;;;;;5079249;28;19912;-63
2023/04/21 02:52:28;;;;;;;;;;;5.90;99.90;;;;;;5079054;28;19958;-63
2023/04/21 02:54:54;;;;;;;;;;;6.00;99.90;;;;;;5078856;28;19928;-63
2023/04/21 02:57:20;;;;;;;;;;;6.00;99.90;;;;;;5097279;28;19923;-64
2023/04/21 02:59:46;;;;;;;;;;;6.00;99.90;;;;;;5097234;28;19919;-63
2023/04/21 03:02:11;;;;;;;;;;;5.90;99.90;;;;;;5078848;28;19951;-63
2023/04/21 03:04:38;;;;;;;;;;;5.90;99.90;;;;;;5078967;28;19933;-63
2023/04/21 03:07:03;;;;;;;;;;;5.90;99.90;;;;;;5078820;28;19960;-63
2023/04/21 03:09:31;;;;;;;;;;;6.00;99.90;;;;;;5096913;28;20267;-63
2023/04/21 03:11:58;;;;;;;;;;;6.00;99.90;;;;;;5096917;28;19912;-64
2023/04/21 03:14:24;;;;;;;;;;;6.00;99.90;;;;;;5078513;28;19926;-64
2023/04/21 03:16:50;;;;;;;;;;;6.00;99.90;;;;;;5078683;28;20376;-64
2023/04/21 03:19:15;;;;;;;;;;;5.90;99.90;;;;;;5096984;28;19912;-63
2023/04/21 03:21:41;;;;;;;;;;;5.90;99.90;;;;;;5096643;28;20350;-63
2023/04/21 03:24:07;;;;;;;;;;;5.90;99.90;;;;;;5096765;28;19915;-63
2023/04/21 03:26:33;;;;;;;;;;;5.90;99.90;;;;;;5078610;28;20003;-64
2023/04/21 03:28:59;;;;;;;;;;;5.90;99.90;;;;;;5096628;28;19976;-63
2023/04/21 03:31:25;;;;;;;;;;;5.80;99.90;;;;;;5078352;28;20418;-63
2023/04/21 03:33:50;;;;;;;;;;;5.70;99.90;;;;;;5096480;28;20411;-64
2023/04/21 03:36:16;;;;;;;;;;;5.60;99.90;;;;;;5078228;28;19912;-63
2023/04/21 03:38:42;;;;;;;;;;;5.60;99.90;;;;;;5078155;28;20029;-63
2023/04/21 03:41:08;;;;;;;;;;;5.50;99.90;;;;;;5096406;28;19920;-64
2023/04/21 03:43:35;;;;;;;;;;;5.50;99.90;;;;;;5078142;28;19934;-63
2023/04/21 03:46:00;;;;;;;;;;;5.40;99.90;;;;;;5078197;28;19939;-63
2023/04/21 03:48:27;;;;;;;;;;;5.40;99.90;;;;;;5078064;28;19913;-63
2023/04/21 03:50:53;;;;;;;;;;;5.30;99.90;;;;;;5096052;28;19952;-63
2023/04/21 03:53:19;;;;;;;;;;;5.30;99.90;;;;;;5096222;28;19919;-63
2023/04/21 03:55:47;;;;;;;;;;;5.30;99.90;;;;;;5095920;28;19934;-63
2023/04/21 03:58:16;;;;;;;;;;;5.20;99.90;;;;;;5095941;28;20273;-63
2023/04/21 04:00:42;;;;;;;;;;;5.20;99.90;;;;;;5094931;28;20254;-64
2023/04/21 04:03:07;;;;;;;;;;;5.20;99.90;;;;;;5095907;28;19912;-63
2023/04/21 04:05:36;;;;;;;;;;;5.20;99.90;;;;;;5095912;28;19920;-63
2023/04/21 04:08:02;;;;;;;;;;;5.20;99.90;;;;;;5095821;28;19957;-63
2023/04/21 04:10:28;;;;;;;;;;;5.20;99.90;;;;;;5095726;28;19908;-63
2023/04/21 04:12:54;;;;;;;;;;;5.30;99.90;;;;;;5095736;28;20121;-64
2023/04/21 04:15:20;;;;;;;;;;;5.20;99.90;;;;;;5095700;28;20354;-64
2023/04/21 04:17:46;;;;;;;;;;;5.30;99.90;;;;;;5095669;28;19938;-63
2023/04/21 04:20:11;;;;;;;;;;;5.30;99.90;;;;;;5095481;28;19916;-63
2023/04/21 04:22:37;;;;;;;;;;;5.40;99.90;;;;;;5095743;28;19912;-63
2023/04/21 04:25:04;;;;;;;;;;;5.50;99.90;;;;;;5095892;28;19908;-63
2023/04/21 04:27:29;;;;;;;;;;;5.50;99.90;;;;;;5095436;28;19912;-63
2023/04/21 04:29:56;;;;;;;;;;;5.60;99.90;;;;;;5095484;28;19916;-63
2023/04/21 04:32:22;;;;;;;;;;;5.70;99.90;;;;;;5095289;28;20442;-64
2023/04/21 04:34:47;;;;;;;;;;;5.80;99.90;;;;;;5095328;28;19920;-64
2023/04/21 04:37:13;;;;;;;;;;;5.80;99.90;;;;;;5095436;28;19916;-64
2023/04/21 04:39:39;;;;;;;;;;;5.80;99.90;;;;;;5095209;28;20002;-64
2023/04/21 04:42:07;;;;;;;;;;;6.00;99.90;;;;;;5095310;28;19916;-64
2023/04/21 04:44:33;;;;;;;;;;;6.10;99.90;;;;;;5095213;28;19916;-64
2023/04/21 04:46:59;;;;;;;;;;;6.20;99.90;;;;;;5095240;28;20049;-63
2023/04/21 04:49:24;;;;;;;;;;;6.20;99.90;;;;;;5095261;28;19927;-63
2023/04/21 04:51:50;;;;;;;;;;;6.40;99.90;;;;;;5095248;28;19908;-63
2023/04/21 04:54:16;;;;;;;;;;;6.60;99.90;;;;;;5094980;28;19927;-63
2023/04/21 04:56:42;;;;;;;;;;;6.70;99.90;;;;;;5095227;28;19927;-63
2023/04/21 04:59:08;;;;;;;;;;;6.70;99.90;;;;;;5095196;28;19966;-64
2023/04/21 05:01:34;;;;;;;;;;;6.80;99.90;;;;;;5095050;28;19916;-64
2023/04/21 05:03:59;;;;;;;;;;;6.90;99.90;;;;;;5094870;28;19979;-63
2023/04/21 05:06:25;;;;;;;;;;;7.00;99.90;;;;;;5095016;28;19920;-64
2023/04/21 05:08:51;;;;;;;;;;;7.20;99.90;;;;;;5094831;28;20106;-63
2023/04/21 05:11:16;;;;;;;;;;;7.40;99.90;;;;;;5096810;28;19956;-63
2023/04/21 05:13:42;;;;;;;;;;;7.50;99.90;;;;;;5099129;28;19916;-63
2023/04/21 05:16:09;;;;;;;;;;;7.70;99.90;;;;;;5099011;28;19957;-63
2023/04/21 05:18:34;;;;;;;;;;;7.80;99.90;;;;;;5099265;28;19908;-64
2023/04/21 05:21:00;;;;;;;;;;;7.90;99.90;;;;;;5099057;28;20353;-63
2023/04/21 05:23:26;;;;;;;;;;;7.80;99.90;;;;;;5099019;28;19908;-64
2023/04/21 05:25:52;;;;;;;;;;;7.90;99.90;;;;;;5099020;28;20312;-64
2023/04/21 05:28:18;;;;;;;;;;;8.00;99.90;;;;;;5098976;28;19912;-64
2023/04/21 05:30:43;;;;;;;;;;;8.30;99.90;;;;;;5098746;28;20419;-64
2023/04/21 05:33:09;;;;;;;;;;;8.50;99.90;;;;;;5098817;28;19912;-64
2023/04/21 05:35:35;;;;;;;;;;;8.70;99.90;;;;;;5099050;28;19919;-64
2023/04/21 05:38:01;;;;;;;;;;;8.90;99.90;;;;;;5098589;28;19912;-64
2023/04/21 05:40:26;;;;;;;;;;;9.10;99.90;;;;;;5098706;28;20386;-64
2023/04/21 05:42:52;;;;;;;;;;;9.20;99.90;;;;;;5098760;28;19908;-65
2023/04/21 05:45:19;;;;;;;;;;;9.30;99.90;;;;;;5098565;28;20362;-65
2023/04/21 05:47:45;;;;;;;;;;;9.30;99.90;;;;;;5098520;28;19912;-65
2023/04/21 05:50:10;;;;;;;;;;;9.30;99.90;;;;;;5098437;28;19916;-65
2023/04/21 05:52:36;;;;;;;;;;;9.30;99.90;;;;;;5098528;28;19912;-65
2023/04/21 05:55:02;;;;;;;;;;;9.40;99.90;;;;;;5098257;28;19928;-65
2023/04/21 05:57:28;;;;;;;;;;;9.60;99.90;;;;;;5098461;28;20372;-65
2023/04/21 05:59:54;;;;;;;;;;;9.90;99.90;;;;;;5098219;28;19923;-65
2023/04/21 06:02:21;;;;;;;;;;;10.00;99.90;;;;;;5098314;28;19916;-65
2023/04/21 06:04:46;;;;;;;;;;;10.20;99.90;;;;;;5098326;28;19955;-65
2023/04/21 06:07:12;;;;;;;;;;;10.40;99.90;;;;;;5098088;28;19934;-65
2023/04/21 06:09:38;;;;;;;;;;;10.70;99.90;;;;;;5098027;28;19912;-65
2023/04/21 06:12:04;;;;;;;;;;;10.60;99.90;;;;;;5098156;28;19912;-65
2023/04/21 06:14:30;;;;;;;;;;;10.90;99.90;;;;;;5097946;28;19920;-65
2023/04/21 06:16:56;;;;;;;;;;;11.10;99.90;;;;;;5098014;28;19919;-65
2023/04/21 06:19:22;;;;;;;;;;;11.00;99.90;;;;;;5098026;28;19908;-65
2023/04/21 06:21:48;;;;;;;;;;;11.00;99.90;;;;;;5097466;28;19913;-65
2023/04/21 06:24:14;;;;;;;;;;;11.10;99.90;;;;;;5097223;28;19916;-65
2023/04/21 06:26:40;;;;;;;;;;;11.50;99.90;;;;;;5097832;28;19912;-65
2023/04/21 06:29:06;;;;;;;;;;;11.80;99.90;;;;;;5097687;28;20357;-65
2023/04/21 06:31:31;;;;;;;;;;;11.80;99.90;;;;;;5097697;28;19919;-65
2023/04/21 06:33:57;;;;;;;;;;;11.90;99.90;;;;;;5097669;28;19943;-65
2023/04/21 06:36:23;;;;;;;;;;;12.20;99.90;;;;;;5098078;28;19912;-65
2023/04/21 06:38:49;;;;;;;;;;;12.50;99.90;;;;;;5097555;28;19935;-65
2023/04/21 06:41:14;;;;;;;;;;;12.50;99.90;;;;;;5097578;28;19916;-65
2023/04/21 06:43:40;;;;;;;;;;;12.70;99.90;;;;;;5097519;28;19965;-65
2023/04/21 06:46:07;;;;;;;;;;;13.00;99.90;;;;;;5097900;28;20373;-65
2023/04/21 06:48:32;;;;;;;;;;;13.30;99.90;;;;;;5097579;28;19958;-65
2023/04/21 06:50:59;;;;;;;;;;;13.60;99.90;;;;;;5097240;28;20289;-65
2023/04/21 06:53:25;;;;;;;;;;;14.00;99.90;;;;;;5097255;28;19920;-65
2023/04/21 06:55:52;;;;;;;;;;;14.30;99.90;;;;;;5097328;28;20333;-65
2023/04/21 06:58:17;;;;;;;;;;;14.70;99.90;;;;;;5097198;28;20289;-65
2023/04/21 07:00:43;;;;;;;;;;;15.00;99.90;;;;;;5097308;28;19912;-65
2023/04/21 07:03:09;;;;;;;;;;;15.40;99.80;;;;;;5097005;28;19912;-65
2023/04/21 07:05:35;;;;;;;;;;;15.50;99.40;;;;;;5097341;28;19916;-65
2023/04/21 07:08:01;;;;;;;;;;;15.80;98.30;;;;;;5096991;28;19919;-65
2023/04/21 07:10:27;;;;;;;;;;;15.90;96.10;;;;;;5096926;28;19919;-65
2023/04/21 07:12:54;;;;;;;;;;;16.10;94.80;;;;;;5096867;28;20332;-65
2023/04/21 07:15:20;;;;;;;;;;;16.50;95.20;;;;;;5096952;28;20011;-65
2023/04/21 07:17:45;;;;;;;;;;;16.40;92.20;;;;;;5096869;28;19967;-65
2023/04/21 07:20:11;;;;;;;;;;;16.60;92.70;;;;;;5096762;28;19969;-65
2023/04/21 07:22:37;;;;;;;;;;;17.50;93.00;;;;;;5096777;28;19959;-65
2023/04/21 07:25:06;;;;;;;;;;;17.50;90.10;;;;;;5096669;28;19919;-65
2023/04/21 07:27:33;;;;;;;;;;;17.70;87.50;;;;;;5096512;28;19918;-65
2023/04/21 07:29:59;;;;;;;;;;;17.20;87.00;;;;;;5096944;28;19919;-65
2023/04/21 07:32:25;;;;;;;;;;;17.70;87.70;;;;;;5096552;28;20016;-65
2023/04/21 07:34:51;;;;;;;;;;;18.30;84.10;;;;;;5096257;28;19927;-66
2023/04/21 07:37:16;;;;;;;;;;;17.70;80.80;;;;;;5096537;28;19912;-66
2023/04/21 07:39:42;;;;;;;;;;;17.80;84.60;;;;;;5096357;28;19912;-66
2023/04/21 07:42:09;;;;;;;;;;;18.10;83.10;;;;;;5096309;28;19982;-63
2023/04/21 07:44:35;;;;;;;;;;;18.30;83.60;;;;;;5096383;28;19916;-63
2023/04/21 07:47:01;;;;;;;;;;;18.50;81.80;;;;;;5096384;28;19908;-63
2023/04/21 07:49:27;;;;;;;;;;;18.50;82.90;;;;;;5096197;28;19916;-63
2023/04/21 07:51:53;;;;;;;;;;;18.80;79.80;;;;;;5096020;28;19912;-63
2023/04/21 07:54:18;;;;;;;;;;;19.20;78.30;;;;;;5096145;28;20324;-63
2023/04/21 07:56:44;;;;;;;;;;;19.40;77.90;;;;;;5095829;28;19967;-63
2023/04/21 07:59:10;;;;;;;;;;;19.70;75.80;;;;;;5096071;28;19932;-63
2023/04/21 08:01:36;;;;;;;;;;;19.80;75.30;;;;;;5096066;28;19914;-63
2023/04/21 08:04:01;;;;;;;;;;;19.90;74.20;;;;;;5095942;28;20358;-63
2023/04/21 08:06:27;;;;;;;;;;;20.30;74.70;;;;;;5095896;28;19925;-63
2023/04/21 08:08:54;;;;;;;;;;;20.30;71.70;;;;;;5095881;28;19912;-64
2023/04/21 08:11:21;;;;;;;;;;;20.80;69.20;;;;;;5095814;28;19916;-64
2023/04/21 08:13:47;;;;;;;;;;;20.90;71.00;;;;;;5095699;28;19962;-64
2023/04/21 08:16:12;;;;;;;;;;;20.60;68.20;;;;;;5095661;28;19968;-64
2023/04/21 08:18:38;;;;;;;;;;;20.80;68.40;;;;;;5095684;28;19943;-64
2023/04/21 08:21:04;;;;;;;;;;;21.20;65.20;;;;;;5096098;28;19916;-64
2023/04/21 08:23:30;;;;;;;;;;;21.30;68.50;;;;;;5095609;28;19955;-64
2023/04/21 08:25:56;;;;;;;;;;;21.60;66.30;;;;;;5095403;28;19912;-64
2023/04/21 08:28:21;;;;;;;;;;;21.90;70.70;;;;;;5095465;28;19912;-64
2023/04/21 08:30:47;;;;;;;;;;;21.90;65.00;;;;;;5095455;28;19908;-64
2023/04/21 08:33:13;;;;;;;;;;;22.00;65.50;;;;;;5095380;28;19919;-66
2023/04/21 08:35:42;;;;;;;;;;;21.50;68.20;;;;;;5095322;28;19912;-66
2023/04/21 08:38:08;;;;;;;;;;;20.80;64.40;;;;;;5095278;28;20311;-66
2023/04/21 08:40:35;;;;;;;;;;;21.10;65.80;;;;;;5095342;28;19920;-67
2023/04/21 08:43:01;;;;;;;;;;;21.30;65.10;;;;;;5095175;28;19916;-66
2023/04/21 08:45:27;;;;;;;;;;;21.80;65.80;;;;;;5094764;28;19912;-66
2023/04/21 08:47:54;;;;;;;;;;;21.90;69.90;;;;;;5095151;28;19919;-67
2023/04/21 08:50:24;;;;;;;;;;;22.00;63.90;;;;;;5095144;28;19919;-67
2023/04/21 08:52:50;;;;;;;;;;;21.50;62.70;;;;;;5095141;28;19951;-66
2023/04/21 08:55:16;;;;;;;;;;;22.20;67.50;;;;;;5094925;28;19982;-65
2023/04/21 08:57:41;;;;;;;;;;;22.40;64.50;;;;;;5095087;28;19979;-64
2023/04/21 09:00:08;;;;;;;;;;;22.40;63.10;;;;;;5095031;28;20436;-65
2023/04/21 09:02:51;;;;;;;;;;;22.00;64.00;;;;;;5094952;28;19922;-65
2023/04/21 09:05:20;;;;;;;;;;;21.30;65.20;;;;;;5095253;28;19915;-64
2023/04/21 09:07:46;;;;;;;;;;;21.30;62.50;;;;;;5094817;28;19951;-65
2023/04/21 09:10:12;;;;;;;;;;;21.10;64.80;;;;;;5094935;28;20290;-65
2023/04/21 09:12:39;;;;;;;;;;;20.80;63.80;;;;;;5094936;28;19919;-65
2023/04/21 09:15:05;;;;;;;;;;;20.80;63.10;;;;;;5094796;28;20037;-65
2023/04/21 09:17:32;;;;;;;;;;;20.40;65.60;;;;;;5094991;28;19912;-65
2023/04/21 09:20:15;;;;;;;;;;;20.40;64.10;;;;;;5094609;28;20350;-65
2023/04/21 09:22:41;;;;;;;;;;;20.60;66.20;;;;;;5094917;28;20004;-65
2023/04/21 09:25:06;;;;;;;;;;;20.50;65.00;;;;;;5094897;28;19908;-65
2023/04/21 09:27:35;;;;;;;;;;;20.40;66.20;;;;;;5094775;28;19918;-65
2023/04/21 09:30:03;;;;;;;;;;;20.50;61.60;;;;;;5094887;28;19912;-65
2023/04/21 09:32:28;;;;;;;;;;;20.40;65.40;;;;;;5094503;28;19916;-65
2023/04/21 09:34:58;;;;;;;;;;;19.80;64.00;;;;;;5094727;28;19988;-65
2023/04/21 09:37:24;;;;;;;;;;;19.70;64.90;;;;;;5094731;28;19939;-64
2023/04/21 09:39:50;;;;;;;;;;;20.10;69.90;;;;;;5094591;28;20016;-65
2023/04/21 09:42:16;;;;;;;;;;;20.20;69.00;;;;;;5094612;28;19920;-64
2023/04/21 09:44:42;;;;;;;;;;;20.50;64.00;;;;;;5094689;28;20491;-67
2023/04/21 09:47:09;;;;;;;;;;;19.90;65.00;;;;;;5094464;28;19912;-67
2023/04/21 09:49:35;;;;;;;;;;;19.90;68.20;;;;;;5094745;28;19935;-67
2023/04/21 09:52:01;;;;;;;;;;;19.60;65.20;;;;;;5094530;28;19920;-67
2023/04/21 09:54:31;;;;;;;;;;;19.80;68.70;;;;;;5094426;28;19912;-67
2023/04/21 09:56:58;;;;;;;;;;;19.70;64.40;;;;;;5095569;28;19924;-67
2023/04/21 09:59:26;;;;;;;;;;;19.60;64.10;;;;;;5098471;28;19934;-67
2023/04/21 10:01:52;;;;;;;;;;;20.00;62.50;;;;;;5098340;28;19916;-67
2023/04/21 10:04:18;;;;;;;;;;;19.50;63.80;;;;;;5098299;28;19991;-67
2023/04/21 10:06:45;;;;;;;;;;;19.40;64.50;;;;;;5080164;28;19955;-67
2023/04/21 10:09:12;;;;;;;;;;;20.00;66.90;;;;;;5098013;28;19912;-67
2023/04/21 10:11:38;;;;;;;;;;;20.30;62.70;;;;;;5098177;28;19912;-67
2023/04/21 10:14:04;;;;;;;;;;;20.80;60.70;;;;;;5097976;28;19916;-67
2023/04/21 10:16:30;;;;;;;;;;;21.50;60.20;;;;;;5098094;28;19935;-67
2023/04/21 10:18:55;;;;;;;;;;;22.10;58.50;;;;;;5098005;28;19920;-66
2023/04/21 10:21:23;;;;;;;;;;;22.60;58.70;;;;;;5079820;28;20273;-66
2023/04/21 10:23:50;;;;;;;;;;;23.50;59.40;;;;;;5097870;28;20380;-67
2023/04/21 10:26:18;;;;;;;;;;;23.00;50.50;;;;;;5097784;28;20010;-67
2023/04/21 10:28:45;;;;;;;;;;;23.00;52.70;;;;;;5097789;28;20079;-67
2023/04/21 10:31:20;;;;;;;;;;;23.00;52.90;;;;;;5097731;28;19920;-67
2023/04/21 10:34:05;;;;;;;;;;;23.20;56.90;;;;;;5097676;28;19920;-67
2023/04/21 10:36:31;;;;;;;;;;;21.90;53.00;;;;;;5097727;28;20380;-67
2023/04/21 10:39:00;;;;;;;;;;;22.10;52.90;;;;;;5097591;28;19908;-67
2023/04/21 10:41:27;;;;;;;;;;;21.60;54.90;;;;;;5097294;28;20385;-67
2023/04/21 10:43:53;;;;;;;;;;;21.40;56.90;;;;;;5097456;28;19920;-67
2023/04/21 10:46:34;;;;;;;;;;;20.80;61.00;;;;;;5097684;28;19904;-65
2023/04/21 10:49:04;;;;;;;;;;;20.50;59.90;;;;;;5097615;28;20003;-65
2023/04/21 10:51:31;;;;;;;;;;;20.20;63.30;;;;;;5097276;28;20366;-65
2023/04/21 10:53:57;;;;;;;;;;;19.90;64.20;;;;;;5097299;28;19963;-64
2023/04/21 10:56:24;;;;;;;;;;;19.60;61.10;;;;;;5097243;28;19943;-65
2023/04/21 10:58:51;;;;;;;;;;;19.50;61.70;;;;;;5097295;28;19913;-65
2023/04/21 11:01:17;;;;;;;;;;;19.20;64.00;;;;;;5097210;28;19915;-64
2023/04/21 11:03:43;;;;;;;;;;;19.10;65.80;;;;;;5097195;28;19912;-65
2023/04/21 11:06:16;;;;;;;;;;;18.70;66.00;;;;;;5096956;28;19912;-64
2023/04/21 11:08:55;;;;;;;;;;;18.50;70.50;;;;;;5096467;28;19992;-64
2023/04/21 11:11:23;;;;;;;;;;;18.40;71.50;;;;;;5097152;28;19923;-67
2023/04/21 11:13:51;;;;;;;;;;;18.20;71.10;;;;;;5096877;28;19920;-65
2023/04/21 11:16:17;;;;;;;;;;;18.00;69.10;;;;;;5096797;28;19916;-65
2023/04/21 11:18:44;;;;;;;;;;;18.00;68.80;;;;;;5096807;28;20387;-65
2023/04/21 11:21:11;;;;;;;;;;;17.90;71.00;;;;;;5096827;28;19955;-65
2023/04/21 11:23:41;;;;;;;;;;;17.90;67.60;;;;;;5096938;28;19966;-65
2023/04/21 11:26:07;;;;;;;;;;;17.90;70.20;;;;;;5096668;28;19912;-65
2023/04/21 11:28:32;;;;;;;;;;;17.90;71.90;;;;;;5096721;28;20414;-65
2023/04/21 11:30:58;;;;;;;;;;;17.80;68.70;;;;;;5096549;28;19912;-65
2023/04/21 11:33:27;;;;;;;;;;;17.70;67.30;;;;;;5096737;28;19916;-65
2023/04/21 11:35:57;;;;;;;;;;;17.70;67.00;;;;;;5096516;28;19912;-65
2023/04/21 11:38:23;;;;;;;;;;;17.70;68.50;;;;;;5096510;28;19912;-65
2023/04/21 11:40:50;;;;;;;;;;;17.40;67.80;;;;;;5096368;28;19919;-65
2023/04/21 11:43:16;;;;;;;;;;;17.30;67.00;;;;;;5096295;28;19920;-65
2023/04/21 11:45:42;;;;;;;;;;;17.40;69.50;;;;;;5096287;28;19912;-65
2023/04/21 11:48:18;;;;;;;;;;;17.50;68.40;;;;;;5096212;28;20350;-65
2023/04/21 11:50:47;;;;;;;;;;;17.70;71.50;;;;;;5096143;28;19918;-65
2023/04/21 11:53:14;;;;;;;;;;;17.90;71.00;;;;;;5096297;28;20361;-65
2023/04/21 11:55:44;;;;;;;;;;;18.10;69.20;;;;;;5095796;28;19923;-65
2023/04/21 11:58:14;;;;;;;;;;;18.30;73.10;;;;;;5096119;28;19912;-64
2023/04/21 12:00:40;;;;;;;;;;;18.90;70.40;;;;;;5096148;28;19916;-65
2023/04/21 12:03:07;;;;;;;;;;;19.30;66.00;;;;;;5095715;28;20383;-64
2023/04/21 12:05:34;;;;;;;;;;;19.80;63.80;;;;;;5096031;28;19964;-65
2023/04/21 12:08:00;;;;;;;;;;;20.00;63.20;;;;;;5095806;28;19916;-65
2023/04/21 12:10:27;;;;;;;;;;;19.90;60.60;;;;;;5095728;28;19919;-64
2023/04/21 12:12:55;;;;;;;;;;;20.40;60.90;;;;;;5095585;28;19919;-64
2023/04/21 12:15:22;;;;;;;;;;;21.00;60.80;;;;;;5095740;28;19916;-64
2023/04/21 12:17:48;;;;;;;;;;;21.40;58.40;;;;;;5095719;28;19912;-65
2023/04/21 12:20:15;;;;;;;;;;;21.80;59.00;;;;;;5094852;28;19912;-65
2023/04/21 12:22:40;;;;;;;;;;;22.50;59.90;;;;;;5095949;28;20007;-65
2023/04/21 12:25:07;;;;;;;;;;;22.70;57.80;;;;;;5095551;28;19955;-65
2023/04/21 12:27:33;;;;;;;;;;;22.80;54.50;;;;;;5095654;28;19916;-65
2023/04/21 12:29:59;;;;;;;;;;;23.10;53.80;;;;;;5095584;28;19912;-65
2023/04/21 12:32:25;;;;;;;;;;;23.10;55.10;;;;;;5095482;28;20241;-65
2023/04/21 12:34:51;;;;;;;;;;;23.30;57.50;;;;;;5095458;28;20342;-65
2023/04/21 12:37:17;;;;;;;;;;;23.10;57.60;;;;;;5095373;28;19912;-65
2023/04/21 12:39:43;;;;;;;;;;;23.30;57.80;;;;;;5095360;28;20281;-65
2023/04/21 12:42:09;;;;;;;;;;;23.50;58.20;;;;;;5095341;28;19912;-65
2023/04/21 12:44:35;;;;;;;;;;;23.70;58.30;;;;;;5095409;28;19912;-65
2023/04/21 12:47:00;;;;;;;;;;;23.70;56.40;;;;;;5095269;28;19912;-65
2023/04/21 12:49:26;;;;;;;;;;;23.90;56.90;;;;;;5095297;28;19940;-65
2023/04/21 12:51:52;;;;;;;;;;;23.40;54.00;;;;;;5095091;28;19948;-65
2023/04/21 12:54:18;;;;;;;;;;;23.40;57.30;;;;;;5095255;28;19916;-65
2023/04/21 12:56:44;;;;;;;;;;;23.70;58.30;;;;;;5094925;28;19920;-65
2023/04/21 12:59:09;;;;;;;;;;;24.00;57.70;;;;;;5095006;28;20276;-65
2023/04/21 13:01:36;;;;;;;;;;;24.60;60.40;;;;;;5095217;28;19959;-65
2023/04/21 13:04:02;;;;;;;;;;;24.70;56.20;;;;;;5095015;28;19912;-65
2023/04/21 13:06:28;;;;;;;;;;;24.10;53.40;;;;;;5094955;28;19916;-66
2023/04/21 13:08:54;;;;;;;;;;;23.30;55.00;;;;;;5094936;28;19919;-65
2023/04/21 13:11:20;;;;;;;;;;;23.10;58.30;;;;;;5095017;28;19912;-65
2023/04/21 13:13:46;;;;;;;;;;;22.80;57.30;;;;;;5094932;28;19920;-65
2023/04/21 13:16:12;;;;;;;;;;;22.90;55.80;;;;;;5094871;28;20404;-65
2023/04/21 13:18:38;;;;;;;;;;;22.70;55.80;;;;;;5094894;28;20379;-65
2023/04/21 13:21:04;;;;;;;;;;;22.40;55.10;;;;;;5094767;28;19963;-65
2023/04/21 13:23:30;;;;;;;;;;;22.40;55.90;;;;;;5094947;28;19951;-65
2023/04/21 13:25:56;;;;;;;;;;;22.10;55.00;;;;;;5094847;28;19916;-65
2023/04/21 13:28:22;;;;;;;;;;;22.30;57.40;;;;;;5094657;28;19912;-65
2023/04/21 13:30:49;;;;;;;;;;;22.00;55.70;;;;;;5095018;28;19916;-65
2023/04/21 13:33:15;;;;;;;;;;;22.20;56.90;;;;;;5098260;28;19951;-65
2023/04/21 13:35:41;;;;;;;;;;;21.90;53.80;;;;;;5098750;28;19970;-65
2023/04/21 13:38:07;;;;;;;;;;;21.70;55.80;;;;;;5098818;28;19912;-65
2023/04/21 13:40:33;;;;;;;;;;;21.80;56.80;;;;;;5098764;28;19911;-65
2023/04/21 13:42:58;;;;;;;;;;;21.80;57.60;;;;;;5098597;28;20262;-65
2023/04/21 13:45:25;;;;;;;;;;;21.50;55.10;;;;;;5098812;28;19916;-65
2023/04/21 13:47:51;;;;;;;;;;;21.70;56.60;;;;;;5098673;28;19923;-65
2023/04/21 13:50:17;;;;;;;;;;;21.70;56.00;;;;;;5098485;28;19909;-65
2023/04/21 13:52:43;;;;;;;;;;;21.20;55.70;;;;;;5098594;28;19915;-65
2023/04/21 13:55:10;;;;;;;;;;;21.30;54.60;;;;;;5098331;28;19920;-65
2023/04/21 13:57:36;;;;;;;;;;;21.10;56.00;;;;;;5098661;28;19915;-65
2023/04/21 14:00:05;;;;;;;;;;;21.20;52.70;;;;;;5098578;28;20330;-65
2023/04/21 14:02:31;;;;;;;;;;;21.30;53.30;;;;;;5098357;28;20002;-65
2023/04/21 14:04:56;;;;;;;;;;;21.10;53.30;;;;;;5098293;28;20407;-65
2023/04/21 14:07:22;;;;;;;;;;;20.70;55.60;;;;;;5097996;28;19965;-65
2023/04/21 14:09:50;;;;;;;;;;;20.60;59.40;;;;;;5098153;28;19923;-65
2023/04/21 14:12:16;;;;;;;;;;;20.50;56.60;;;;;;5098197;28;20305;-65
2023/04/21 14:14:42;;;;;;;;;;;20.50;54.90;;;;;;5098055;28;19920;-65
2023/04/21 14:17:08;;;;;;;;;;;20.40;54.30;;;;;;5098476;28;19933;-65
2023/04/21 14:19:34;;;;;;;;;;;20.60;56.30;;;;;;5098175;28;20280;-65